Terminal Aerodrome Forecast
Issued by NWS

Home | Current Version | Previous Version | Text Only | Print | Product List | Glossary Off
Versions: 1 2 3 4 5 6 7 8 9 10 11 12 13 14

000
FTUS43 KBIS 030528
TAFJMS
TAF
KJMS 030528Z 0306/0406 VRB03KT P6SM FEW250
     FM031400 29011KT P6SM FEW250
     FM031700 33017G29KT P6SM SKC
     FM040200 36008KT P6SM SKC=

USA.gov is the U.S. government's official web portal to all federal, state and local government web resources and services.